Terminal Aerodrome Forecast
Issued by NWS

Home | Current Version | Previous Version | Text Only | Print | Product List | Glossary On
Versions: 1 2 3 4 5 6 7 8 9 10 11 12 13 14 15 16 17 18 19
000
FTUS41 KBOX 021737
TAFFMH
TAF
KFMH 021737Z 0218/0318 27012G20KT P6SM SCT040
     FM030500 28010G26KT P6SM SCT100
     FM031600 32011G22KT P6SM SCT250=

USA.gov is the U.S. government's official web portal to all federal, state and local government web resources and services.